Time;durP1;ratioP1;P1;durP2;ratioP2;P2;SDS_P1;SDS_P2;PMS_P1;PMS_P2;Temp;Humidity;BMP_temperature;BMP_pressure;BME280_temperature;BME280_humidity;BME280_pressure;Samples;Min_cycle;Max_cycle;Signal;HPM_P1;HPM_P2
2023/08/13 00:00:24;;;;;;;17.33;16.73;;;21.80;1.00;;;;;;4919128;29;20472;-86
2023/08/13 00:02:58;;;;;;;17.10;16.47;;;21.70;1.00;;;;;;4920865;29;20559;-89
2023/08/13 00:05:36;;;;;;;17.20;16.40;;;21.70;1.00;;;;;;4920145;29;20496;-88
2023/08/13 00:08:16;;;;;;;17.47;16.67;;;21.70;1.00;;;;;;4921160;29;21018;-87
2023/08/13 00:11:04;;;;;;;17.10;16.40;;;21.60;1.00;;;;;;4921143;29;20471;-87
2023/08/13 00:13:41;;;;;;;17.00;16.20;;;21.60;1.00;;;;;;4921937;29;20480;-88
2023/08/13 00:16:13;;;;;;;17.17;16.37;;;21.70;1.00;;;;;;4917693;29;20499;-87
2023/08/13 00:18:48;;;;;;;17.07;16.37;;;21.70;1.00;;;;;;4924943;29;20470;-87
2023/08/13 00:21:25;;;;;;;18.13;17.33;;;21.60;1.00;;;;;;4921701;29;20465;-87
2023/08/13 00:24:07;;;;;;;17.47;16.63;;;21.60;1.00;;;;;;4923798;29;21246;-87
2023/08/13 00:26:47;;;;;;;17.97;17.10;;;21.50;1.00;;;;;;4922125;29;20473;-87
2023/08/13 00:29:22;;;;;;;18.70;17.70;;;21.50;1.00;;;;;;4927801;29;20468;-85
2023/08/13 00:32:03;;;;;;;17.37;16.47;;;21.40;1.00;;;;;;4924352;29;20841;-86
2023/08/13 00:34:36;;;;;;;17.07;16.37;;;21.40;1.00;;;;;;4929273;29;20491;-87
2023/08/13 00:37:14;;;;;;;16.97;16.20;;;21.30;1.00;;;;;;4925543;29;20464;-88
2023/08/13 00:39:45;;;;;;;17.30;16.50;;;21.40;1.00;;;;;;4920643;29;20456;-87
2023/08/13 00:42:28;;;;;;;16.90;16.20;;;21.40;1.00;;;;;;4921564;29;21449;-87
2023/08/13 00:45:05;;;;;;;17.27;16.40;;;21.40;1.00;;;;;;4921336;29;20523;-88
2023/08/13 00:47:43;;;;;;;16.93;16.23;;;21.40;1.00;;;;;;4919724;29;20464;-88
2023/08/13 00:50:21;;;;;;;17.23;16.50;;;21.40;1.00;;;;;;4927505;29;20517;-86
2023/08/13 00:52:57;;;;;;;17.67;16.83;;;21.40;1.00;;;;;;4924897;29;20531;-87
2023/08/13 00:55:32;;;;;;;17.70;17.00;;;21.40;1.00;;;;;;4922091;29;20485;-86
2023/08/13 00:58:13;;;;;;;17.00;16.30;;;21.40;1.00;;;;;;4919749;29;20460;-87
2023/08/13 01:00:53;;;;;;;18.43;17.17;;;21.40;1.00;;;;;;4922272;29;20474;-86
2023/08/13 01:03:28;;;;;;;17.43;16.73;;;21.40;1.00;;;;;;4922148;29;20526;-88
2023/08/13 01:09:51;;;;;;;17.33;16.43;;;21.20;1.00;;;;;;4922893;29;20500;-85
2023/08/13 01:12:42;;;;;;;17.43;16.67;;;21.30;1.00;;;;;;4919207;29;21160;-87
2023/08/13 01:15:28;;;;;;;17.30;16.60;;;21.30;1.00;;;;;;4920656;29;20489;-88
2023/08/13 01:18:07;;;;;;;18.63;17.70;;;21.20;1.00;;;;;;4925224;29;20867;-86
2023/08/13 01:20:49;;;;;;;22.37;21.07;;;21.20;1.00;;;;;;4924048;28;20992;-87
2023/08/13 01:23:43;;;;;;;21.40;20.20;;;21.20;1.00;;;;;;4923518;29;20577;-86
2023/08/13 01:26:34;;;;;;;19.40;18.50;;;21.10;1.00;;;;;;4924043;29;20598;-87
2023/08/13 01:29:31;;;;;;;;;;;;;;;;;;;;;
2023/08/13 01:32:17;;;;;;;19.77;18.67;;;21.20;1.00;;;;;;4918406;29;20466;-88
2023/08/13 01:35:00;;;;;;;18.93;18.03;;;21.10;1.00;;;;;;4922860;29;20468;-89
2023/08/13 01:37:42;;;;;;;18.40;17.60;;;21.10;1.00;;;;;;4925505;29;20825;-86
2023/08/13 01:40:52;;;;;;;17.80;17.00;;;21.20;1.00;;;;;;4924216;29;20506;-88
2023/08/13 01:43:42;;;;;;;17.80;16.80;;;21.20;1.00;;;;;;4925726;29;20490;-88
2023/08/13 01:46:43;;;;;;;17.13;16.37;;;21.10;1.00;;;;;;4953084;23;20520;-90
2023/08/13 01:49:27;;;;;;;17.90;17.20;;;21.20;1.00;;;;;;4910090;29;20461;-88
2023/08/13 01:52:09;;;;;;;17.70;16.90;;;21.20;1.00;;;;;;4901317;29;20977;-87
2023/08/13 01:54:58;;;;;;;18.53;17.43;;;21.20;1.00;;;;;;4999606;23;21033;-87
2023/08/13 01:57:47;;;;;;;18.40;17.43;;;21.20;1.00;;;;;;4906141;29;20487;-87
2023/08/13 02:00:29;;;;;;;17.90;17.10;;;21.20;1.00;;;;;;4905264;29;20460;-87
2023/08/13 02:03:06;;;;;;;17.80;17.00;;;21.20;1.00;;;;;;4903010;29;20468;-87
2023/08/13 02:05:44;;;;;;;16.93;16.33;;;21.10;1.00;;;;;;4903152;29;20509;-88
2023/08/13 02:08:21;;;;;;;19.37;18.00;;;21.10;1.00;;;;;;4904050;29;20462;-87
2023/08/13 02:11:04;;;;;;;17.33;16.50;;;21.10;1.00;;;;;;4902263;29;20471;-87
2023/08/13 02:13:51;;;;;;;17.47;16.77;;;21.10;1.00;;;;;;4903391;29;20489;-88
2023/08/13 02:16:23;;;;;;;18.10;16.57;;;21.00;1.00;;;;;;4903267;29;20474;-86
2023/08/13 02:19:14;;;;;;;17.70;17.00;;;21.10;1.00;;;;;;4899589;29;21018;-87
2023/08/13 02:21:57;;;;;;;16.80;16.20;;;21.10;1.00;;;;;;4900602;29;20462;-87
2023/08/13 02:24:49;;;;;;;17.57;16.67;;;21.00;1.00;;;;;;4903048;29;20483;-87
2023/08/13 02:27:24;;;;;;;17.57;16.77;;;21.00;1.00;;;;;;4901556;29;20465;-87
2023/08/13 02:30:17;;;;;;;17.97;17.27;;;20.90;1.00;;;;;;4903623;29;21007;-88
2023/08/13 02:32:59;;;;;;;17.97;17.07;;;21.00;1.00;;;;;;4904537;29;20998;-87
2023/08/13 02:35:38;;;;;;;19.07;17.80;;;20.90;1.00;;;;;;4904692;29;20512;-88
2023/08/13 02:38:19;;;;;;;18.30;17.27;;;20.90;1.00;;;;;;4904747;29;20554;-86
2023/08/13 02:40:58;;;;;;;17.70;16.70;;;21.00;1.00;;;;;;4900729;29;21010;-86
2023/08/13 02:43:51;;;;;;;17.83;16.87;;;20.90;1.00;;;;;;4902166;29;20492;-86
2023/08/13 02:46:35;;;;;;;17.03;16.43;;;20.90;1.00;;;;;;4899978;29;20517;-86
2023/08/13 02:49:24;;;;;;;19.03;17.43;;;21.00;1.00;;;;;;4904163;29;20866;-88
2023/08/13 02:51:59;;;;;;;17.60;16.70;;;20.90;1.00;;;;;;4904615;29;20462;-88
2023/08/13 02:54:41;;;;;;;19.00;18.00;;;21.00;1.00;;;;;;4907862;29;20481;-90
2023/08/13 02:57:23;;;;;;;18.53;17.73;;;20.90;1.00;;;;;;4908233;29;20485;-87
2023/08/13 03:00:07;;;;;;;18.33;17.50;;;21.00;1.00;;;;;;4904513;29;20471;-87
2023/08/13 03:05:43;;;;;;;17.60;16.60;;;21.10;1.00;;;;;;4906778;29;21026;-89
2023/08/13 03:08:26;;;;;;;17.67;16.87;;;21.10;1.00;;;;;;4911175;29;20874;-86
2023/08/13 03:11:06;;;;;;;17.70;16.80;;;21.20;1.00;;;;;;4906959;29;20468;-86
2023/08/13 03:13:41;;;;;;;18.37;17.57;;;21.20;1.00;;;;;;4906322;29;20481;-87
2023/08/13 03:16:20;;;;;;;18.63;17.63;;;21.20;1.00;;;;;;4908313;29;20827;-87
2023/08/13 03:19:07;;;;;;;18.37;17.47;;;21.20;1.00;;;;;;4906673;29;20549;-85
2023/08/13 03:21:47;;;;;;;17.70;16.80;;;21.20;1.00;;;;;;4905450;29;20541;-85
2023/08/13 03:24:27;;;;;;;16.93;16.30;;;21.10;1.00;;;;;;4907215;29;20482;-85
2023/08/13 03:27:04;;;;;;;17.60;16.80;;;21.10;1.00;;;;;;4903184;29;21011;-89
2023/08/13 03:29:43;;;;;;;17.53;16.83;;;21.10;1.00;;;;;;4902853;29;20461;-88
2023/08/13 03:32:16;;;;;;;17.60;16.90;;;21.10;1.00;;;;;;4900719;29;21087;-87
2023/08/13 03:34:50;;;;;;;17.47;16.67;;;21.10;1.00;;;;;;4899715;29;20882;-88
2023/08/13 03:37:32;;;;;;;17.80;16.80;;;21.10;1.00;;;;;;4904439;29;20489;-86
2023/08/13 03:40:08;;;;;;;18.27;17.50;;;21.10;1.00;;;;;;4904116;29;20472;-87
2023/08/13 03:42:42;;;;;;;17.80;16.90;;;21.10;1.00;;;;;;4905592;29;20492;-84
2023/08/13 03:45:20;;;;;;;18.03;17.23;;;21.10;1.00;;;;;;4906103;29;20809;-88
2023/08/13 03:48:00;;;;;;;;;;;;;;;;;;;;;
2023/08/13 03:50:53;;;;;;;18.27;17.47;;;21.00;1.00;;;;;;4900245;29;20465;-86
2023/08/13 03:53:28;;;;;;;18.23;17.20;;;21.00;1.00;;;;;;4901258;29;20965;-85
2023/08/13 03:56:10;;;;;;;19.17;18.13;;;21.00;1.00;;;;;;4907723;29;20501;-84
2023/08/13 03:58:46;;;;;;;18.27;17.27;;;21.00;1.00;;;;;;4916320;29;20481;-86
2023/08/13 04:01:28;;;;;;;18.87;17.83;;;21.00;1.00;;;;;;4901191;29;20500;-86
2023/08/13 04:04:01;;;;;;;18.00;17.20;;;21.00;1.00;;;;;;4901323;29;20462;-85
2023/08/13 04:06:44;;;;;;;18.67;17.77;;;21.00;1.00;;;;;;4900186;29;20461;-84
2023/08/13 04:09:18;;;;;;;18.90;18.00;;;21.00;1.00;;;;;;4904601;29;20467;-86
2023/08/13 04:11:53;;;;;;;18.10;17.20;;;21.00;1.00;;;;;;4911679;29;20468;-85
2023/08/13 04:14:33;;;;;;;19.00;18.07;;;21.00;1.00;;;;;;4903600;29;20560;-84
2023/08/13 04:17:11;;;;;;;19.03;18.03;;;20.90;1.00;;;;;;4903866;29;20469;-84
2023/08/13 04:19:46;;;;;;;18.43;17.63;;;20.90;1.00;;;;;;4902779;29;20481;-87
2023/08/13 04:22:19;;;;;;;18.77;17.97;;;20.90;1.00;;;;;;4905038;29;20449;-86
2023/08/13 04:25:07;;;;;;;19.63;17.90;;;20.90;1.60;;;;;;4899721;29;20489;-86
2023/08/13 04:27:47;;;;;;;19.27;18.17;;;21.00;3.00;;;;;;4904143;29;20472;-87
2023/08/13 04:30:31;;;;;;;18.50;17.70;;;21.00;2.40;;;;;;4903684;29;20506;-83
2023/08/13 04:33:10;;;;;;;19.00;17.93;;;21.00;2.50;;;;;;4903882;29;20462;-85
2023/08/13 04:35:58;;;;;;;19.03;18.20;;;21.00;1.00;;;;;;4902534;29;20485;-85
2023/08/13 04:38:39;;;;;;;19.97;18.93;;;20.90;3.70;;;;;;4903953;29;20466;-88
2023/08/13 04:41:14;;;;;;;19.40;18.50;;;20.90;8.40;;;;;;4918531;29;20474;-82
2023/08/13 04:43:55;;;;;;;19.33;18.43;;;21.00;15.50;;;;;;4917738;29;20469;-85
2023/08/13 04:46:33;;;;;;;19.10;18.30;;;21.00;9.50;;;;;;4901958;29;20560;-85
2023/08/13 04:49:07;;;;;;;19.97;18.97;;;21.00;13.30;;;;;;4896672;29;20458;-87
2023/08/13 04:51:46;;;;;;;20.20;18.80;;;21.00;11.50;;;;;;4896725;29;20753;-84
2023/08/13 04:54:22;;;;;;;19.57;18.70;;;21.00;13.70;;;;;;4902177;29;20489;-87
2023/08/13 04:56:57;;;;;;;19.73;18.40;;;21.10;17.10;;;;;;4902582;29;20466;-84
2023/08/13 04:59:29;;;;;;;20.07;18.97;;;21.00;13.30;;;;;;4907609;29;21025;-86
2023/08/13 05:01:59;;;;;;;19.40;18.50;;;21.00;10.40;;;;;;4898690;29;20466;-86
2023/08/13 05:04:41;;;;;;;19.90;18.80;;;21.00;18.40;;;;;;4894050;29;20571;-89
2023/08/13 05:07:18;;;;;;;19.70;18.70;;;21.00;18.50;;;;;;4901056;29;20464;-89
2023/08/13 05:10:07;;;;;;;20.73;19.70;;;21.10;18.30;;;;;;4898806;29;20539;-85
2023/08/13 05:12:46;;;;;;;20.30;19.40;;;21.00;23.20;;;;;;4904721;29;20542;-86
2023/08/13 05:15:18;;;;;;;20.03;18.83;;;21.00;18.90;;;;;;4901507;29;20789;-86
2023/08/13 05:17:49;;;;;;;18.90;18.00;;;21.00;23.90;;;;;;4904775;29;20841;-85
2023/08/13 05:20:25;;;;;;;20.13;19.13;;;21.00;33.10;;;;;;4905591;29;20445;-84
2023/08/13 05:22:57;;;;;;;19.97;19.07;;;21.00;31.10;;;;;;4905300;29;20454;-85
2023/08/13 05:25:38;;;;;;;19.87;18.90;;;21.00;37.00;;;;;;4906989;29;20480;-86
2023/08/13 05:28:10;;;;;;;18.97;18.00;;;21.00;29.00;;;;;;4904039;29;20456;-85
2023/08/13 05:30:50;;;;;;;20.50;19.50;;;21.10;26.30;;;;;;4904085;29;20457;-84
2023/08/13 05:33:24;;;;;;;20.30;19.30;;;21.10;22.00;;;;;;4904118;29;20454;-85
2023/08/13 05:35:57;;;;;;;20.10;18.83;;;21.10;23.60;;;;;;4906633;29;20494;-85
2023/08/13 05:38:30;;;;;;;19.80;18.70;;;21.10;26.00;;;;;;4905264;29;20469;-85
2023/08/13 05:41:04;;;;;;;20.43;19.33;;;21.10;34.60;;;;;;4902615;29;20482;-87
2023/08/13 05:43:36;;;;;;;20.10;19.10;;;21.10;34.40;;;;;;4903122;29;20462;-86
2023/08/13 05:46:10;;;;;;;19.33;18.43;;;21.10;25.80;;;;;;4907301;29;21146;-86
2023/08/13 05:48:46;;;;;;;19.40;18.50;;;21.10;28.90;;;;;;4904224;29;20561;-87
2023/08/13 05:51:21;;;;;;;19.40;18.40;;;21.10;31.20;;;;;;4905493;29;20523;-86
2023/08/13 05:53:52;;;;;;;20.33;19.17;;;21.10;26.80;;;;;;4904284;29;20450;-85
2023/08/13 05:56:58;;;;;;;18.60;17.80;;;21.20;30.50;;;;;;4903491;29;20485;-86
2023/08/13 05:59:33;;;;;;;18.63;17.63;;;21.20;33.80;;;;;;4907402;29;20493;-85
2023/08/13 06:02:11;;;;;;;18.50;17.70;;;21.20;28.80;;;;;;4905063;29;20568;-85
2023/08/13 06:04:48;;;;;;;18.70;17.90;;;21.20;29.60;;;;;;4907601;29;20474;-85
2023/08/13 06:07:23;;;;;;;19.90;18.20;;;21.20;37.40;;;;;;4908080;29;20758;-85
2023/08/13 06:10:02;;;;;;;19.07;18.20;;;21.20;34.50;;;;;;4906746;29;20550;-85
2023/08/13 06:12:42;;;;;;;19.00;18.10;;;21.20;36.10;;;;;;4910642;29;20452;-85
2023/08/13 06:15:14;;;;;;;19.90;18.90;;;21.20;37.00;;;;;;4906233;29;20498;-87
2023/08/13 06:17:46;;;;;;;19.40;18.13;;;21.20;30.70;;;;;;4907449;29;20469;-86
2023/08/13 06:20:18;;;;;;;19.63;18.63;;;21.20;27.10;;;;;;4907699;29;20882;-86
2023/08/13 06:22:54;;;;;;;18.67;17.87;;;21.20;28.60;;;;;;4908717;29;20553;-86
2023/08/13 06:25:27;;;;;;;18.90;18.03;;;21.20;35.90;;;;;;4919262;29;20520;-87
2023/08/13 06:28:03;;;;;;;18.23;17.43;;;21.20;34.70;;;;;;4907683;29;20453;-87
2023/08/13 06:30:33;;;;;;;18.43;17.53;;;21.30;28.80;;;;;;4910959;29;20474;-85
2023/08/13 06:33:09;;;;;;;18.90;18.00;;;21.30;33.50;;;;;;4907314;29;20467;-85
2023/08/13 06:35:47;;;;;;;18.00;17.10;;;21.30;14.00;;;;;;4906833;29;20479;-84
2023/08/13 06:38:22;;;;;;;18.30;17.50;;;21.20;30.30;;;;;;4903427;29;20550;-86
2023/08/13 06:41:07;;;;;;;18.20;17.23;;;21.30;33.80;;;;;;4906013;29;20457;-85
2023/08/13 06:43:42;;;;;;;17.70;16.93;;;21.20;23.90;;;;;;4906209;29;21195;-85
2023/08/13 06:46:16;;;;;;;18.80;18.00;;;21.30;31.10;;;;;;4921398;28;20482;-86
2023/08/13 06:48:44;;;;;;;18.00;17.20;;;21.30;58.60;;;;;;4907642;29;20489;-85
2023/08/13 06:51:17;;;;;;;18.70;17.83;;;21.30;46.80;;;;;;4911770;29;20497;-87
2023/08/13 06:53:51;;;;;;;18.67;17.77;;;21.20;54.30;;;;;;4904804;29;20461;-86
2023/08/13 06:56:20;;;;;;;18.07;17.27;;;21.30;67.00;;;;;;4905209;29;20911;-86
2023/08/13 06:58:56;;;;;;;18.70;17.80;;;21.30;62.10;;;;;;4905153;29;20465;-87
2023/08/13 07:01:33;;;;;;;17.83;17.13;;;21.30;61.70;;;;;;4907799;29;20465;-86
2023/08/13 07:04:10;;;;;;;17.07;16.37;;;21.30;28.00;;;;;;4908052;29;20457;-85
2023/08/13 07:06:48;;;;;;;18.50;17.60;;;21.30;36.80;;;;;;4911613;29;20859;-86
2023/08/13 07:09:24;;;;;;;18.17;17.47;;;21.30;28.90;;;;;;4908149;29;20461;-86
2023/08/13 07:11:57;;;;;;;17.60;16.87;;;21.20;41.10;;;;;;4907907;29;20470;-85
2023/08/13 07:14:35;;;;;;;18.30;17.40;;;21.30;45.60;;;;;;4908111;29;20501;-85
2023/08/13 07:17:11;;;;;;;17.97;17.27;;;21.30;37.10;;;;;;4904304;29;20508;-85
2023/08/13 07:19:47;;;;;;;18.03;17.33;;;21.30;35.70;;;;;;4904820;29;20525;-85
2023/08/13 07:22:21;;;;;;;17.50;16.80;;;21.30;22.70;;;;;;4905367;29;20497;-86
2023/08/13 07:24:54;;;;;;;17.33;16.70;;;21.30;15.90;;;;;;4905994;29;20472;-87
2023/08/13 07:27:34;;;;;;;17.30;16.60;;;21.30;16.50;;;;;;4903919;29;21035;-85
2023/08/13 07:30:13;;;;;;;17.27;16.47;;;21.40;14.00;;;;;;4906845;29;20462;-85
2023/08/13 07:32:51;;;;;;;18.27;17.47;;;21.40;32.40;;;;;;4904285;29;20466;-85
2023/08/13 07:35:27;;;;;;;18.27;17.37;;;21.40;34.20;;;;;;4906632;29;20481;-85
2023/08/13 07:38:02;;;;;;;18.47;17.63;;;21.50;35.20;;;;;;4906350;29;20545;-86
2023/08/13 07:40:40;;;;;;;18.70;17.80;;;21.40;39.00;;;;;;4907484;29;20863;-85
2023/08/13 07:43:17;;;;;;;18.50;17.67;;;21.50;31.10;;;;;;4905307;29;20458;-85
2023/08/13 07:45:59;;;;;;;17.00;16.33;;;21.50;26.10;;;;;;4904676;29;20489;-85
2023/08/13 07:48:28;;;;;;;17.80;17.07;;;21.60;21.90;;;;;;4903767;29;20450;-86
2023/08/13 07:51:04;;;;;;;18.20;17.30;;;21.70;26.30;;;;;;4909717;29;20550;-85
2023/08/13 07:53:35;;;;;;;17.83;17.13;;;21.70;1.00;;;;;;4911546;29;20465;-86
2023/08/13 07:56:11;;;;;;;17.73;17.03;;;21.70;1.00;;;;;;4908666;29;21011;-86
2023/08/13 07:58:55;;;;;;;17.80;17.00;;;21.80;1.00;;;;;;4906658;29;20552;-87
2023/08/13 08:01:29;;;;;;;17.60;16.90;;;21.80;1.00;;;;;;4910969;29;20457;-85
2023/08/13 08:04:03;;;;;;;17.47;16.87;;;21.80;1.00;;;;;;4912503;29;20542;-86
2023/08/13 08:06:39;;;;;;;18.00;17.30;;;21.80;1.00;;;;;;4904433;29;20466;-85
2023/08/13 08:09:09;;;;;;;17.37;16.67;;;21.70;1.00;;;;;;4905297;29;20489;-87
2023/08/13 08:11:41;;;;;;;17.17;16.47;;;21.80;1.00;;;;;;4908492;29;20537;-86
2023/08/13 08:14:14;;;;;;;16.90;16.30;;;21.80;1.00;;;;;;4904579;29;20454;-88
2023/08/13 08:17:04;;;;;;;17.73;16.93;;;21.90;1.00;;;;;;4906421;29;20475;-85
2023/08/13 08:19:37;;;;;;;17.97;17.07;;;21.90;1.00;;;;;;4907194;29;20477;-85
2023/08/13 08:22:13;;;;;;;18.17;17.37;;;22.00;1.00;;;;;;4905811;29;20561;-86
2023/08/13 08:24:50;;;;;;;17.20;16.50;;;22.10;1.00;;;;;;4908038;29;20572;-85
2023/08/13 08:27:25;;;;;;;17.00;16.30;;;22.20;1.00;;;;;;4906395;29;20725;-87
2023/08/13 08:29:57;;;;;;;17.80;17.00;;;22.10;1.00;;;;;;4904308;29;21490;-86
2023/08/13 08:32:37;;;;;;;17.70;17.00;;;22.10;1.00;;;;;;4904152;29;20599;-86
2023/08/13 08:35:09;;;;;;;17.30;16.50;;;22.10;1.00;;;;;;4907485;29;20464;-84
2023/08/13 08:37:38;;;;;;;17.23;16.53;;;22.20;1.00;;;;;;4906654;29;20477;-86
2023/08/13 08:40:17;;;;;;;17.03;16.33;;;22.10;1.00;;;;;;4912224;29;20449;-85
2023/08/13 08:42:49;;;;;;;17.43;16.73;;;22.20;1.00;;;;;;4912837;29;20465;-85
2023/08/13 08:45:24;;;;;;;18.10;17.00;;;22.20;1.00;;;;;;4906736;29;20514;-89
2023/08/13 08:47:59;;;;;;;17.03;16.43;;;22.20;1.00;;;;;;4904697;29;20466;-85
2023/08/13 08:50:40;;;;;;;18.13;17.40;;;22.20;1.00;;;;;;4903107;29;20446;-85
2023/08/13 08:53:09;;;;;;;18.00;17.20;;;22.30;1.00;;;;;;4905961;29;20458;-86
2023/08/13 08:55:45;;;;;;;17.80;17.00;;;22.30;1.00;;;;;;4902720;29;20498;-87
2023/08/13 08:58:18;;;;;;;18.23;17.53;;;22.20;1.00;;;;;;4907602;29;20481;-86
2023/08/13 09:01:00;;;;;;;17.57;16.77;;;22.20;1.00;;;;;;4902913;29;21007;-86
2023/08/13 09:03:34;;;;;;;17.57;16.77;;;22.20;1.00;;;;;;4910390;29;20496;-86
2023/08/13 09:06:08;;;;;;;17.70;17.00;;;22.30;1.00;;;;;;4902294;29;20480;-87
2023/08/13 09:08:56;;;;;;;17.73;17.03;;;22.40;1.00;;;;;;4907269;29;20509;-85
2023/08/13 09:11:30;;;;;;;18.17;17.37;;;22.40;1.00;;;;;;4902260;29;20469;-86
2023/08/13 09:14:05;;;;;;;17.70;16.90;;;22.60;1.00;;;;;;4902759;29;20446;-86
2023/08/13 09:16:47;;;;;;;17.77;16.77;;;22.70;1.00;;;;;;4906799;29;20503;-86
2023/08/13 09:19:29;;;;;;;17.53;16.73;;;22.80;1.00;;;;;;4903852;29;20645;-86
2023/08/13 09:22:07;;;;;;;18.07;17.17;;;22.90;1.00;;;;;;4904736;29;20457;-85
2023/08/13 09:24:41;;;;;;;17.80;16.87;;;23.10;1.00;;;;;;4904381;29;20482;-85
2023/08/13 09:27:21;;;;;;;18.70;17.80;;;23.10;1.00;;;;;;4907659;29;20486;-86
2023/08/13 09:30:01;;;;;;;17.80;17.10;;;23.30;1.00;;;;;;4901767;29;20474;-86
2023/08/13 09:32:41;;;;;;;18.30;17.50;;;23.30;1.00;;;;;;4907792;29;20894;-85
2023/08/13 09:35:18;;;;;;;20.07;19.07;;;23.30;1.00;;;;;;4908193;29;21000;-87
2023/08/13 09:37:52;;;;;;;18.63;17.70;;;23.30;1.00;;;;;;4910867;29;21053;-88
2023/08/13 09:40:26;;;;;;;18.60;17.70;;;23.30;1.00;;;;;;4906246;29;20470;-85
2023/08/13 09:43:08;;;;;;;18.33;17.40;;;23.40;1.00;;;;;;4908707;29;20465;-87
2023/08/13 09:45:42;;;;;;;19.10;17.97;;;23.40;1.00;;;;;;4907916;29;20482;-87
2023/08/13 09:48:27;;;;;;;19.20;17.87;;;23.40;99.90;;;;;;4907348;29;21009;-86
2023/08/13 09:51:04;;;;;;;17.40;16.80;;;23.50;99.90;;;;;;4907776;29;20477;-86
2023/08/13 09:53:40;;;;;;;19.17;18.17;;;23.40;1.00;;;;;;4908759;29;20472;-86
2023/08/13 09:56:20;;;;;;;18.87;18.07;;;23.40;1.00;;;;;;4909415;29;20482;-87
2023/08/13 09:58:55;;;;;;;18.63;17.83;;;23.60;1.00;;;;;;4905295;29;20483;-87
2023/08/13 10:01:32;;;;;;;17.43;16.83;;;23.70;99.90;;;;;;4909844;29;20578;-89
2023/08/13 10:04:19;;;;;;;18.60;17.80;;;23.80;99.90;;;;;;4904473;29;20558;-88
2023/08/13 10:07:00;;;;;;;17.67;16.87;;;23.80;99.90;;;;;;4908346;29;20450;-86
2023/08/13 10:09:36;;;;;;;18.27;17.30;;;23.80;99.90;;;;;;4906611;29;20651;-86
2023/08/13 10:12:11;;;;;;;18.83;17.90;;;23.90;99.90;;;;;;4909954;29;20465;-85
2023/08/13 10:14:52;;;;;;;17.47;16.77;;;24.00;99.90;;;;;;4909592;29;20500;-84
2023/08/13 10:17:30;;;;;;;19.10;17.97;;;24.00;99.90;;;;;;4905806;29;20489;-85
2023/08/13 10:20:09;;;;;;;18.37;17.47;;;24.10;99.90;;;;;;4908579;29;20468;-85
2023/08/13 10:23:01;;;;;;;18.70;17.70;;;24.20;99.90;;;;;;4905833;29;20754;-85
2023/08/13 10:25:34;;;;;;;18.67;17.87;;;24.30;1.00;;;;;;4922101;29;20477;-86
2023/08/13 10:28:34;;;;;;;18.27;17.43;;;24.40;1.00;;;;;;4908036;29;20446;-89
2023/08/13 10:31:29;;;;;;;17.93;17.23;;;24.50;1.00;;;;;;4904390;29;20485;-86
2023/08/13 10:34:15;;;;;;;19.00;18.13;;;24.60;1.00;;;;;;4919913;29;20458;-86
2023/08/13 10:36:54;;;;;;;18.00;17.17;;;24.60;1.00;;;;;;4910824;29;20459;-88
2023/08/13 10:39:45;;;;;;;18.63;17.83;;;24.80;1.00;;;;;;4920084;29;21022;-85
2023/08/13 10:42:48;;;;;;;18.20;17.40;;;24.80;99.90;;;;;;4907593;29;20502;-86
2023/08/13 10:45:20;;;;;;;19.53;18.53;;;24.80;99.90;;;;;;4904615;29;20576;-84
2023/08/13 10:48:02;;;;;;;19.83;18.83;;;24.90;99.90;;;;;;4906205;29;20984;-85
2023/08/13 10:50:39;;;;;;;19.73;18.83;;;25.00;99.90;;;;;;4905309;29;21039;-86
2023/08/13 10:53:27;;;;;;;18.20;17.50;;;25.00;99.90;;;;;;4910772;29;20453;-86
2023/08/13 10:56:07;;;;;;;19.10;18.30;;;25.10;99.90;;;;;;4905283;29;20493;-85
2023/08/13 10:58:41;;;;;;;18.53;17.83;;;25.00;99.90;;;;;;4906421;29;20491;-86
2023/08/13 11:01:20;;;;;;;19.50;18.60;;;25.10;1.00;;;;;;4911063;29;20461;-86
2023/08/13 11:04:00;;;;;;;19.50;18.60;;;25.10;99.90;;;;;;4907222;29;20900;-86
2023/08/13 11:06:46;;;;;;;18.93;18.13;;;25.00;1.00;;;;;;4907742;29;20455;-86
2023/08/13 11:09:18;;;;;;;18.80;18.00;;;25.00;99.90;;;;;;4909606;29;20955;-87
2023/08/13 11:11:50;;;;;;;18.60;17.70;;;24.90;99.90;;;;;;4904367;29;20466;-87
2023/08/13 11:14:20;;;;;;;18.97;18.07;;;24.80;1.00;;;;;;4905624;29;20470;-86
2023/08/13 11:16:56;;;;;;;19.07;18.07;;;24.80;99.90;;;;;;4909167;29;20456;-85
2023/08/13 11:19:40;;;;;;;18.10;17.30;;;24.90;80.40;;;;;;4908985;29;20487;-86
2023/08/13 11:22:11;;;;;;;18.37;17.67;;;24.90;99.90;;;;;;4907687;29;20529;-86
2023/08/13 11:24:50;;;;;;;18.70;17.83;;;24.80;1.00;;;;;;4921038;29;21034;-85
2023/08/13 11:27:36;;;;;;;19.40;18.60;;;24.90;99.90;;;;;;4917623;29;20536;-85
2023/08/13 11:33:09;;;;;;;19.00;18.10;;;25.10;1.00;;;;;;4903563;29;20917;-87
2023/08/13 11:35:45;;;;;;;19.50;18.50;;;25.10;1.00;;;;;;4905869;29;20478;-86
2023/08/13 11:38:22;;;;;;;18.33;17.43;;;25.10;99.90;;;;;;4901818;29;20855;-86
2023/08/13 11:40:59;;;;;;;18.20;17.30;;;25.10;99.90;;;;;;4903605;29;20461;-86
2023/08/13 11:43:35;;;;;;;17.60;16.90;;;25.20;99.90;;;;;;4903941;29;20454;-87
2023/08/13 11:46:10;;;;;;;17.07;16.47;;;25.20;1.00;;;;;;4904943;29;20576;-87
2023/08/13 11:48:49;;;;;;;17.87;17.17;;;25.30;1.00;;;;;;4906437;29;20446;-90
2023/08/13 11:51:23;;;;;;;17.73;17.00;;;25.50;1.00;;;;;;4909205;29;21030;-87
2023/08/13 11:53:56;;;;;;;17.40;16.70;;;25.50;1.00;;;;;;4905157;29;20534;-86
2023/08/13 11:56:30;;;;;;;18.13;17.27;;;25.60;1.00;;;;;;4903307;29;20497;-85
2023/08/13 11:59:14;;;;;;;18.73;17.67;;;25.60;99.90;;;;;;4920571;29;21087;-85
2023/08/13 12:01:43;;;;;;;17.87;17.00;;;25.60;99.90;;;;;;4906929;29;20468;-88
2023/08/13 12:04:19;;;;;;;18.13;17.10;;;25.70;1.00;;;;;;4904384;29;20450;-86
2023/08/13 12:06:58;;;;;;;17.23;16.53;;;25.60;99.90;;;;;;4904572;29;20471;-87
2023/08/13 12:09:41;;;;;;;17.03;16.40;;;25.70;1.00;;;;;;4903523;29;20466;-85
2023/08/13 12:12:19;;;;;;;17.77;17.07;;;25.70;99.90;;;;;;4905972;29;20465;-85
2023/08/13 12:14:58;;;;;;;17.43;16.70;;;25.70;99.90;;;;;;4908763;29;20481;-86
2023/08/13 12:17:40;;;;;;;16.67;16.07;;;25.80;99.90;;;;;;4904530;28;20847;-86
2023/08/13 12:20:15;;;;;;;16.90;16.30;;;25.80;99.90;;;;;;4907567;29;20486;-86
2023/08/13 12:22:53;;;;;;;17.13;16.37;;;25.80;99.90;;;;;;4903740;29;20838;-86
2023/08/13 12:25:36;;;;;;;16.77;16.17;;;25.80;99.90;;;;;;4903421;29;20496;-86
2023/08/13 12:28:18;;;;;;;17.03;16.40;;;25.90;21.00;;;;;;4904375;29;20514;-87
2023/08/13 12:30:53;;;;;;;16.77;16.07;;;25.90;1.00;;;;;;4903324;29;20939;-85
2023/08/13 12:33:27;;;;;;;17.70;17.00;;;25.90;99.90;;;;;;4903755;29;20462;-88
2023/08/13 12:36:06;;;;;;;16.90;16.30;;;26.00;1.00;;;;;;4903640;29;20473;-85
2023/08/13 12:38:41;;;;;;;17.00;16.30;;;26.00;1.00;;;;;;4902812;29;20558;-86
2023/08/13 12:41:24;;;;;;;17.07;16.33;;;26.00;1.00;;;;;;4905239;29;20458;-87
2023/08/13 12:44:12;;;;;;;17.00;16.40;;;26.00;1.00;;;;;;4903303;29;20464;-84
2023/08/13 12:46:52;;;;;;;16.57;15.97;;;26.00;1.00;;;;;;4903412;29;21008;-87
2023/08/13 12:49:27;;;;;;;16.60;16.00;;;26.00;99.90;;;;;;4907134;29;20438;-86
2023/08/13 12:52:08;;;;;;;17.33;16.63;;;26.00;99.90;;;;;;4905148;29;20465;-86
2023/08/13 12:54:42;;;;;;;17.03;16.07;;;25.90;99.90;;;;;;4905373;29;20470;-87
2023/08/13 12:57:28;;;;;;;17.47;16.77;;;25.80;1.00;;;;;;4903457;29;20482;-86
2023/08/13 13:00:10;;;;;;;16.80;16.20;;;25.80;99.90;;;;;;4902878;29;20485;-85
2023/08/13 13:02:54;;;;;;;16.90;16.30;;;25.80;1.00;;;;;;4903525;29;20462;-87
2023/08/13 13:05:33;;;;;;;16.83;16.23;;;25.90;99.90;;;;;;4918301;29;20564;-85
2023/08/13 13:08:14;;;;;;;16.10;15.60;;;25.90;99.90;;;;;;4907566;29;20469;-86
2023/08/13 13:10:54;;;;;;;16.80;16.20;;;26.00;1.00;;;;;;4903941;29;21095;-85
2023/08/13 13:13:31;;;;;;;17.43;16.67;;;26.00;26.60;;;;;;4906782;29;20466;-87
2023/08/13 13:16:10;;;;;;;16.90;16.30;;;26.10;1.00;;;;;;4904518;29;20566;-87
2023/08/13 13:19:00;;;;;;;17.77;16.80;;;26.20;99.90;;;;;;4904373;29;20553;-86
2023/08/13 13:21:37;;;;;;;17.83;17.03;;;26.10;96.20;;;;;;4903359;29;20575;-87
2023/08/13 13:24:13;;;;;;;18.07;17.47;;;26.10;99.90;;;;;;4901919;29;20465;-87
2023/08/13 13:26:51;;;;;;;16.63;16.07;;;26.00;1.00;;;;;;4904763;29;20945;-89
2023/08/13 13:29:27;;;;;;;17.00;16.27;;;25.90;99.90;;;;;;4906500;29;20989;-89
2023/08/13 13:32:10;;;;;;;16.63;16.03;;;25.90;1.00;;;;;;4903845;29;20524;-86
2023/08/13 13:34:48;;;;;;;17.17;16.43;;;25.90;1.00;;;;;;4901587;29;20469;-86
2023/08/13 13:37:25;;;;;;;16.53;16.03;;;25.90;99.90;;;;;;4905247;29;20478;-87
2023/08/13 13:40:02;;;;;;;17.10;16.50;;;25.90;1.00;;;;;;4904866;29;20481;-86
2023/08/13 13:42:33;;;;;;;17.60;16.90;;;25.80;1.00;;;;;;4901723;29;20840;-86